sensor_id;sensor_type;location;lat;lon;timestamp;temperature;humidity
1786;DHT22;890;48.158;11.540;2022-10-26T00:00:38;14.30;90.40
1786;DHT22;890;48.158;11.540;2022-10-26T00:03:04;14.30;90.30
1786;DHT22;890;48.158;11.540;2022-10-26T00:05:32;14.30;90.60
1786;DHT22;890;48.158;11.540;2022-10-26T00:07:58;14.20;90.20
1786;DHT22;890;48.158;11.540;2022-10-26T00:10:24;14.20;90.20
1786;DHT22;890;48.158;11.540;2022-10-26T00:12:50;14.20;90.30
1786;DHT22;890;48.158;11.540;2022-10-26T00:15:17;14.30;90.30
1786;DHT22;890;48.158;11.540;2022-10-26T00:17:42;14.20;90.20
1786;DHT22;890;48.158;11.540;2022-10-26T00:20:08;14.20;90.20
1786;DHT22;890;48.158;11.540;2022-10-26T00:22:34;14.20;90.10
1786;DHT22;890;48.158;11.540;2022-10-26T00:24:59;14.20;90.00
1786;DHT22;890;48.158;11.540;2022-10-26T00:27:25;14.20;89.90
1786;DHT22;890;48.158;11.540;2022-10-26T00:29:50;14.20;89.70
1786;DHT22;890;48.158;11.540;2022-10-26T00:32:16;14.20;89.70
1786;DHT22;890;48.158;11.540;2022-10-26T00:34:42;14.20;89.70
1786;DHT22;890;48.158;11.540;2022-10-26T00:37:07;14.20;90.20
1786;DHT22;890;48.158;11.540;2022-10-26T00:39:34;14.20;89.80
1786;DHT22;890;48.158;11.540;2022-10-26T00:41:59;14.20;89.70
1786;DHT22;890;48.158;11.540;2022-10-26T00:49:49;14.30;89.90
1786;DHT22;890;48.158;11.540;2022-10-26T00:52:17;14.30;89.50
1786;DHT22;890;48.158;11.540;2022-10-26T00:54:44;14.30;89.40
1786;DHT22;890;48.158;11.540;2022-10-26T00:57:11;14.30;89.30
1786;DHT22;890;48.158;11.540;2022-10-26T00:59:38;14.30;89.10
1786;DHT22;890;48.158;11.540;2022-10-26T01:02:04;14.30;89.30
1786;DHT22;890;48.158;11.540;2022-10-26T01:04:29;14.30;89.50
1786;DHT22;890;48.158;11.540;2022-10-26T01:06:55;14.30;89.40
1786;DHT22;890;48.158;11.540;2022-10-26T01:09:21;14.40;89.40
1786;DHT22;890;48.158;11.540;2022-10-26T01:11:47;14.40;89.40
1786;DHT22;890;48.158;11.540;2022-10-26T01:14:15;14.40;89.50
1786;DHT22;890;48.158;11.540;2022-10-26T01:16:55;14.40;89.40
1786;DHT22;890;48.158;11.540;2022-10-26T01:22:21;14.30;89.20
1786;DHT22;890;48.158;11.540;2022-10-26T01:30:15;14.40;89.10
1786;DHT22;890;48.158;11.540;2022-10-26T01:41:11;14.40;88.80
1786;DHT22;890;48.158;11.540;2022-10-26T01:43:41;14.30;88.70
1786;DHT22;890;48.158;11.540;2022-10-26T01:46:08;14.30;89.00
1786;DHT22;890;48.158;11.540;2022-10-26T01:48:36;14.40;89.20
1786;DHT22;890;48.158;11.540;2022-10-26T01:51:03;14.40;89.20
1786;DHT22;890;48.158;11.540;2022-10-26T01:53:30;14.40;89.30
1786;DHT22;890;48.158;11.540;2022-10-26T01:55:56;14.40;90.10
1786;DHT22;890;48.158;11.540;2022-10-26T01:58:51;14.40;89.30
1786;DHT22;890;48.158;11.540;2022-10-26T02:01:32;14.30;89.20
1786;DHT22;890;48.158;11.540;2022-10-26T02:06:51;14.30;89.40
1786;DHT22;890;48.158;11.540;2022-10-26T02:15:08;14.20;89.40
1786;DHT22;890;48.158;11.540;2022-10-26T02:17:48;14.30;89.70
1786;DHT22;890;48.158;11.540;2022-10-26T02:20:30;14.40;90.20
1786;DHT22;890;48.158;11.540;2022-10-26T02:23:00;14.30;90.10
1786;DHT22;890;48.158;11.540;2022-10-26T02:25:32;14.30;90.20
1786;DHT22;890;48.158;11.540;2022-10-26T02:28:12;14.30;90.30
1786;DHT22;890;48.158;11.540;2022-10-26T02:30:39;14.30;90.40
1786;DHT22;890;48.158;11.540;2022-10-26T02:33:06;14.50;90.30
1786;DHT22;890;48.158;11.540;2022-10-26T02:35:35;14.40;90.20
1786;DHT22;890;48.158;11.540;2022-10-26T02:38:05;14.40;90.20
1786;DHT22;890;48.158;11.540;2022-10-26T02:40:33;14.40;90.40
1786;DHT22;890;48.158;11.540;2022-10-26T02:43:04;14.40;90.40
1786;DHT22;890;48.158;11.540;2022-10-26T02:45:33;14.50;90.50
1786;DHT22;890;48.158;11.540;2022-10-26T02:48:00;14.50;90.40
1786;DHT22;890;48.158;11.540;2022-10-26T02:50:34;14.50;90.30
1786;DHT22;890;48.158;11.540;2022-10-26T02:53:18;14.40;90.30
1786;DHT22;890;48.158;11.540;2022-10-26T02:55:49;14.40;90.20
1786;DHT22;890;48.158;11.540;2022-10-26T02:58:27;14.50;90.30
1786;DHT22;890;48.158;11.540;2022-10-26T03:00:53;14.40;90.50
1786;DHT22;890;48.158;11.540;2022-10-26T03:03:20;14.50;90.20
1786;DHT22;890;48.158;11.540;2022-10-26T03:05:46;14.40;90.20
1786;DHT22;890;48.158;11.540;2022-10-26T03:08:11;14.40;90.40
1786;DHT22;890;48.158;11.540;2022-10-26T03:10:41;14.40;90.50
1786;DHT22;890;48.158;11.540;2022-10-26T03:13:08;14.40;90.60
1786;DHT22;890;48.158;11.540;2022-10-26T03:15:34;14.40;90.40
1786;DHT22;890;48.158;11.540;2022-10-26T03:17:59;14.30;90.60
1786;DHT22;890;48.158;11.540;2022-10-26T03:20:25;14.40;90.70
1786;DHT22;890;48.158;11.540;2022-10-26T03:22:51;14.40;90.70
1786;DHT22;890;48.158;11.540;2022-10-26T03:25:16;14.50;90.70
1786;DHT22;890;48.158;11.540;2022-10-26T03:27:42;14.40;90.70
1786;DHT22;890;48.158;11.540;2022-10-26T03:30:08;14.50;90.90
1786;DHT22;890;48.158;11.540;2022-10-26T03:32:34;14.50;91.00
1786;DHT22;890;48.158;11.540;2022-10-26T03:34:59;14.50;91.20
1786;DHT22;890;48.158;11.540;2022-10-26T03:37:26;14.60;91.20
1786;DHT22;890;48.158;11.540;2022-10-26T03:39:51;14.60;91.20
1786;DHT22;890;48.158;11.540;2022-10-26T03:42:17;14.60;91.30
1786;DHT22;890;48.158;11.540;2022-10-26T03:44:43;14.60;91.10
1786;DHT22;890;48.158;11.540;2022-10-26T03:47:08;14.60;91.10
1786;DHT22;890;48.158;11.540;2022-10-26T03:49:34;14.60;91.20
1786;DHT22;890;48.158;11.540;2022-10-26T03:52:00;14.60;91.20
1786;DHT22;890;48.158;11.540;2022-10-26T03:54:26;14.60;91.70
1786;DHT22;890;48.158;11.540;2022-10-26T03:56:51;14.60;91.20
1786;DHT22;890;48.158;11.540;2022-10-26T03:59:17;14.60;91.10
1786;DHT22;890;48.158;11.540;2022-10-26T04:01:43;14.70;91.20
1786;DHT22;890;48.158;11.540;2022-10-26T04:04:08;14.70;91.30
1786;DHT22;890;48.158;11.540;2022-10-26T04:06:34;14.70;91.50
1786;DHT22;890;48.158;11.540;2022-10-26T04:08:59;14.70;91.40
1786;DHT22;890;48.158;11.540;2022-10-26T04:11:27;14.80;91.30
1786;DHT22;890;48.158;11.540;2022-10-26T04:13:53;14.70;91.10
1786;DHT22;890;48.158;11.540;2022-10-26T04:16:20;14.70;91.00
1786;DHT22;890;48.158;11.540;2022-10-26T04:18:45;14.70;91.00
1786;DHT22;890;48.158;11.540;2022-10-26T04:21:12;14.70;90.90
1786;DHT22;890;48.158;11.540;2022-10-26T04:23:38;14.60;90.80
1786;DHT22;890;48.158;11.540;2022-10-26T04:26:04;14.60;90.90
1786;DHT22;890;48.158;11.540;2022-10-26T04:28:30;14.60;91.00
1786;DHT22;890;48.158;11.540;2022-10-26T04:30:55;14.70;91.20
1786;DHT22;890;48.158;11.540;2022-10-26T04:33:21;14.70;91.00
1786;DHT22;890;48.158;11.540;2022-10-26T04:35:47;14.70;91.10
1786;DHT22;890;48.158;11.540;2022-10-26T04:38:12;14.70;91.20
1786;DHT22;890;48.158;11.540;2022-10-26T04:40:38;14.70;91.20
1786;DHT22;890;48.158;11.540;2022-10-26T04:43:04;14.80;91.50
1786;DHT22;890;48.158;11.540;2022-10-26T04:45:29;14.90;91.30
1786;DHT22;890;48.158;11.540;2022-10-26T04:48:00;14.80;91.40
1786;DHT22;890;48.158;11.540;2022-10-26T04:50:25;14.70;91.30
1786;DHT22;890;48.158;11.540;2022-10-26T04:52:52;14.70;91.40
1786;DHT22;890;48.158;11.540;2022-10-26T04:55:18;14.70;91.40
1786;DHT22;890;48.158;11.540;2022-10-26T04:57:44;14.60;91.40
1786;DHT22;890;48.158;11.540;2022-10-26T05:00:11;14.60;91.60
1786;DHT22;890;48.158;11.540;2022-10-26T05:02:37;14.50;91.70
1786;DHT22;890;48.158;11.540;2022-10-26T05:05:02;14.40;91.80
1786;DHT22;890;48.158;11.540;2022-10-26T05:07:28;14.30;92.10
1786;DHT22;890;48.158;11.540;2022-10-26T05:09:53;14.30;92.30
1786;DHT22;890;48.158;11.540;2022-10-26T05:12:19;14.30;92.40
1786;DHT22;890;48.158;11.540;2022-10-26T05:14:45;14.30;92.60
1786;DHT22;890;48.158;11.540;2022-10-26T05:17:10;14.10;92.80
1786;DHT22;890;48.158;11.540;2022-10-26T05:19:36;14.10;93.00
1786;DHT22;890;48.158;11.540;2022-10-26T05:22:02;14.10;93.20
1786;DHT22;890;48.158;11.540;2022-10-26T05:24:28;14.00;93.30
1786;DHT22;890;48.158;11.540;2022-10-26T05:26:53;14.10;93.60
1786;DHT22;890;48.158;11.540;2022-10-26T05:29:19;14.20;93.80
1786;DHT22;890;48.158;11.540;2022-10-26T05:31:45;14.30;93.70
1786;DHT22;890;48.158;11.540;2022-10-26T05:34:10;14.30;93.60
1786;DHT22;890;48.158;11.540;2022-10-26T05:36:36;14.30;93.70
1786;DHT22;890;48.158;11.540;2022-10-26T05:39:01;14.30;93.70
1786;DHT22;890;48.158;11.540;2022-10-26T05:41:27;14.20;93.80
1786;DHT22;890;48.158;11.540;2022-10-26T05:43:53;14.20;94.00
1786;DHT22;890;48.158;11.540;2022-10-26T05:46:18;14.20;94.10
1786;DHT22;890;48.158;11.540;2022-10-26T05:48:44;14.20;94.30
1786;DHT22;890;48.158;11.540;2022-10-26T05:51:09;14.20;94.50
1786;DHT22;890;48.158;11.540;2022-10-26T05:53:37;14.20;94.40
1786;DHT22;890;48.158;11.540;2022-10-26T05:56:07;14.20;94.50
1786;DHT22;890;48.158;11.540;2022-10-26T05:58:37;14.20;94.80
1786;DHT22;890;48.158;11.540;2022-10-26T06:01:43;14.10;94.90
1786;DHT22;890;48.158;11.540;2022-10-26T06:04:24;14.00;95.00
1786;DHT22;890;48.158;11.540;2022-10-26T06:06:53;14.10;95.20
1786;DHT22;890;48.158;11.540;2022-10-26T06:09:19;14.00;95.50
1786;DHT22;890;48.158;11.540;2022-10-26T06:11:45;14.00;95.60
1786;DHT22;890;48.158;11.540;2022-10-26T06:14:11;14.00;95.80
1786;DHT22;890;48.158;11.540;2022-10-26T06:19:21;14.00;95.80
1786;DHT22;890;48.158;11.540;2022-10-26T06:30:31;14.10;96.00
1786;DHT22;890;48.158;11.540;2022-10-26T06:32:57;14.30;96.40
1786;DHT22;890;48.158;11.540;2022-10-26T06:38:16;14.30;96.20
1786;DHT22;890;48.158;11.540;2022-10-26T06:40:44;14.30;96.20
1786;DHT22;890;48.158;11.540;2022-10-26T06:43:15;14.40;96.30
1786;DHT22;890;48.158;11.540;2022-10-26T06:45:47;14.30;96.40
1786;DHT22;890;48.158;11.540;2022-10-26T06:48:21;14.30;96.60
1786;DHT22;890;48.158;11.540;2022-10-26T06:50:51;14.30;96.80
1786;DHT22;890;48.158;11.540;2022-10-26T06:53:30;14.50;97.00
1786;DHT22;890;48.158;11.540;2022-10-26T06:55:58;14.50;96.90
1786;DHT22;890;48.158;11.540;2022-10-26T06:58:28;14.60;97.00
1786;DHT22;890;48.158;11.540;2022-10-26T07:00:55;14.70;97.00
1786;DHT22;890;48.158;11.540;2022-10-26T07:03:21;14.80;96.90
1786;DHT22;890;48.158;11.540;2022-10-26T07:05:47;14.90;96.80
1786;DHT22;890;48.158;11.540;2022-10-26T07:08:13;14.90;96.70
1786;DHT22;890;48.158;11.540;2022-10-26T07:10:38;14.90;96.60
1786;DHT22;890;48.158;11.540;2022-10-26T07:13:08;15.00;96.60
1786;DHT22;890;48.158;11.540;2022-10-26T07:15:35;15.00;96.50
1786;DHT22;890;48.158;11.540;2022-10-26T07:18:03;15.10;96.50
1786;DHT22;890;48.158;11.540;2022-10-26T07:20:38;15.10;96.40
1786;DHT22;890;48.158;11.540;2022-10-26T07:23:05;15.20;96.40
1786;DHT22;890;48.158;11.540;2022-10-26T07:25:37;15.30;96.30
1786;DHT22;890;48.158;11.540;2022-10-26T07:28:05;15.40;96.20
1786;DHT22;890;48.158;11.540;2022-10-26T07:30:31;15.40;96.00
1786;DHT22;890;48.158;11.540;2022-10-26T07:32:59;15.40;95.90
1786;DHT22;890;48.158;11.540;2022-10-26T07:35:25;15.40;95.90
1786;DHT22;890;48.158;11.540;2022-10-26T07:37:50;15.30;95.70
1786;DHT22;890;48.158;11.540;2022-10-26T07:40:16;15.30;95.80
1786;DHT22;890;48.158;11.540;2022-10-26T07:42:41;15.30;95.70
1786;DHT22;890;48.158;11.540;2022-10-26T07:45:08;15.30;95.70
1786;DHT22;890;48.158;11.540;2022-10-26T07:47:34;15.30;95.70
1786;DHT22;890;48.158;11.540;2022-10-26T07:49:59;15.30;95.50
1786;DHT22;890;48.158;11.540;2022-10-26T07:52:25;15.30;95.50
1786;DHT22;890;48.158;11.540;2022-10-26T07:54:50;15.30;95.60
1786;DHT22;890;48.158;11.540;2022-10-26T07:57:17;15.30;95.50
1786;DHT22;890;48.158;11.540;2022-10-26T07:59:42;15.40;95.50
1786;DHT22;890;48.158;11.540;2022-10-26T08:02:08;15.50;95.50
1786;DHT22;890;48.158;11.540;2022-10-26T08:04:34;15.50;95.40
1786;DHT22;890;48.158;11.540;2022-10-26T08:07:00;16.00;95.40
1786;DHT22;890;48.158;11.540;2022-10-26T08:09:25;15.50;95.00
1786;DHT22;890;48.158;11.540;2022-10-26T08:11:51;15.60;95.00
1786;DHT22;890;48.158;11.540;2022-10-26T08:14:16;15.70;95.20
1786;DHT22;890;48.158;11.540;2022-10-26T08:16:42;15.70;95.20
1786;DHT22;890;48.158;11.540;2022-10-26T08:19:07;15.80;94.90
1786;DHT22;890;48.158;11.540;2022-10-26T08:21:33;15.90;94.90
1786;DHT22;890;48.158;11.540;2022-10-26T08:23:58;16.00;94.90
1786;DHT22;890;48.158;11.540;2022-10-26T08:26:24;16.20;94.70
1786;DHT22;890;48.158;11.540;2022-10-26T08:28:49;16.30;94.40
1786;DHT22;890;48.158;11.540;2022-10-26T08:31:15;16.40;94.30
1786;DHT22;890;48.158;11.540;2022-10-26T08:33:41;16.50;94.50
1786;DHT22;890;48.158;11.540;2022-10-26T08:36:06;16.90;95.10
1786;DHT22;890;48.158;11.540;2022-10-26T08:38:32;17.60;97.70
1786;DHT22;890;48.158;11.540;2022-10-26T08:40:58;18.40;99.10
1786;DHT22;890;48.158;11.540;2022-10-26T08:43:30;19.30;96.90
1786;DHT22;890;48.158;11.540;2022-10-26T08:48:43;19.50;90.40
1786;DHT22;890;48.158;11.540;2022-10-26T08:53:46;19.30;87.00
1786;DHT22;890;48.158;11.540;2022-10-26T08:56:20;19.10;86.00
1786;DHT22;890;48.158;11.540;2022-10-26T08:58:56;19.10;85.50
1786;DHT22;890;48.158;11.540;2022-10-26T09:01:23;19.10;85.10
1786;DHT22;890;48.158;11.540;2022-10-26T09:03:49;19.30;86.10
1786;DHT22;890;48.158;11.540;2022-10-26T09:06:17;19.40;85.00
1786;DHT22;890;48.158;11.540;2022-10-26T09:09:13;19.80;85.60
1786;DHT22;890;48.158;11.540;2022-10-26T09:12:09;20.20;83.80
1786;DHT22;890;48.158;11.540;2022-10-26T09:17:31;20.80;84.00
1786;DHT22;890;48.158;11.540;2022-10-26T09:22:49;21.90;83.80
1786;DHT22;890;48.158;11.540;2022-10-26T09:25:23;22.90;84.80
1786;DHT22;890;48.158;11.540;2022-10-26T09:27:57;24.20;89.30
1786;DHT22;890;48.158;11.540;2022-10-26T09:30:24;25.90;90.30
1786;DHT22;890;48.158;11.540;2022-10-26T09:35:46;26.50;67.90
1786;DHT22;890;48.158;11.540;2022-10-26T09:38:36;26.30;68.20
1786;DHT22;890;48.158;11.540;2022-10-26T09:43:56;27.40;69.30
1786;DHT22;890;48.158;11.540;2022-10-26T09:46:33;27.30;61.80
1786;DHT22;890;48.158;11.540;2022-10-26T09:49:04;27.50;63.20
1786;DHT22;890;48.158;11.540;2022-10-26T09:51:37;27.90;59.90
1786;DHT22;890;48.158;11.540;2022-10-26T09:54:17;27.70;56.40
1786;DHT22;890;48.158;11.540;2022-10-26T09:56:47;27.00;59.20
1786;DHT22;890;48.158;11.540;2022-10-26T09:59:15;26.60;57.10
1786;DHT22;890;48.158;11.540;2022-10-26T10:01:42;26.00;55.60
1786;DHT22;890;48.158;11.540;2022-10-26T10:06:48;24.70;55.30
1786;DHT22;890;48.158;11.540;2022-10-26T10:11:51;23.60;55.80
1786;DHT22;890;48.158;11.540;2022-10-26T10:14:27;23.00;56.30
1786;DHT22;890;48.158;11.540;2022-10-26T10:17:00;22.80;57.40
1786;DHT22;890;48.158;11.540;2022-10-26T10:19:29;22.50;57.40
1786;DHT22;890;48.158;11.540;2022-10-26T10:22:00;22.20;57.70
1786;DHT22;890;48.158;11.540;2022-10-26T10:24:31;22.00;58.10
1786;DHT22;890;48.158;11.540;2022-10-26T10:27:07;21.90;58.60
1786;DHT22;890;48.158;11.540;2022-10-26T10:29:45;21.70;58.80
1786;DHT22;890;48.158;11.540;2022-10-26T10:32:23;21.90;59.40
1786;DHT22;890;48.158;11.540;2022-10-26T10:34:51;22.20;61.30
1786;DHT22;890;48.158;11.540;2022-10-26T10:37:36;23.20;62.50
1786;DHT22;890;48.158;11.540;2022-10-26T10:40:19;23.90;62.20
1786;DHT22;890;48.158;11.540;2022-10-26T10:42:46;23.90;58.30
1786;DHT22;890;48.158;11.540;2022-10-26T10:45:22;23.60;56.90
1786;DHT22;890;48.158;11.540;2022-10-26T10:50:31;22.50;56.80
1786;DHT22;890;48.158;11.540;2022-10-26T10:53:17;22.10;57.30
1786;DHT22;890;48.158;11.540;2022-10-26T10:56:07;21.70;57.80
1786;DHT22;890;48.158;11.540;2022-10-26T11:01:21;21.50;58.70
1786;DHT22;890;48.158;11.540;2022-10-26T11:04:13;21.40;59.10
1786;DHT22;890;48.158;11.540;2022-10-26T11:06:46;21.30;59.00
1786;DHT22;890;48.158;11.540;2022-10-26T11:09:18;21.20;59.20
1786;DHT22;890;48.158;11.540;2022-10-26T11:12:08;21.00;59.70
1786;DHT22;890;48.158;11.540;2022-10-26T11:14:39;21.00;60.20
1786;DHT22;890;48.158;11.540;2022-10-26T11:17:20;21.10;60.40
1786;DHT22;890;48.158;11.540;2022-10-26T11:20:17;21.10;60.80
1786;DHT22;890;48.158;11.540;2022-10-26T11:25:27;21.00;61.10
1786;DHT22;890;48.158;11.540;2022-10-26T11:27:58;21.10;62.40
1786;DHT22;890;48.158;11.540;2022-10-26T11:30:25;21.10;61.70
1786;DHT22;890;48.158;11.540;2022-10-26T11:33:13;21.10;61.80
1786;DHT22;890;48.158;11.540;2022-10-26T11:35:59;21.10;62.20
1786;DHT22;890;48.158;11.540;2022-10-26T11:38:39;21.20;62.00
1786;DHT22;890;48.158;11.540;2022-10-26T11:41:21;21.20;62.00
1786;DHT22;890;48.158;11.540;2022-10-26T11:43:52;21.30;61.90
1786;DHT22;890;48.158;11.540;2022-10-26T11:46:31;21.20;61.80
1786;DHT22;890;48.158;11.540;2022-10-26T11:49:19;21.20;62.40
1786;DHT22;890;48.158;11.540;2022-10-26T11:51:47;21.10;62.50
1786;DHT22;890;48.158;11.540;2022-10-26T11:57:04;21.00;62.80
1786;DHT22;890;48.158;11.540;2022-10-26T11:59:33;20.90;63.20
1786;DHT22;890;48.158;11.540;2022-10-26T12:02:04;20.80;63.60
1786;DHT22;890;48.158;11.540;2022-10-26T12:04:34;20.60;63.70
1786;DHT22;890;48.158;11.540;2022-10-26T12:07:06;20.60;64.10
1786;DHT22;890;48.158;11.540;2022-10-26T12:09:36;20.50;64.10
1786;DHT22;890;48.158;11.540;2022-10-26T12:12:12;20.40;64.40
1786;DHT22;890;48.158;11.540;2022-10-26T12:23:04;20.30;65.30
1786;DHT22;890;48.158;11.540;2022-10-26T12:25:30;20.40;65.50
1786;DHT22;890;48.158;11.540;2022-10-26T12:27:56;20.40;65.60
1786;DHT22;890;48.158;11.540;2022-10-26T12:30:32;20.40;65.70
1786;DHT22;890;48.158;11.540;2022-10-26T12:33:27;20.40;65.90
1786;DHT22;890;48.158;11.540;2022-10-26T12:35:53;20.30;65.90
1786;DHT22;890;48.158;11.540;2022-10-26T12:59:29;20.90;65.20
1786;DHT22;890;48.158;11.540;2022-10-26T13:07:35;21.00;64.60
1786;DHT22;890;48.158;11.540;2022-10-26T13:10:22;21.00;64.60
1786;DHT22;890;48.158;11.540;2022-10-26T13:12:58;21.00;64.50
1786;DHT22;890;48.158;11.540;2022-10-26T13:15:28;21.10;64.70
1786;DHT22;890;48.158;11.540;2022-10-26T13:18:12;21.20;64.80
1786;DHT22;890;48.158;11.540;2022-10-26T13:23:25;21.40;63.70
1786;DHT22;890;48.158;11.540;2022-10-26T13:26:03;21.50;63.60
1786;DHT22;890;48.158;11.540;2022-10-26T13:31:04;21.60;63.30
1786;DHT22;890;48.158;11.540;2022-10-26T13:33:37;21.60;63.10
1786;DHT22;890;48.158;11.540;2022-10-26T13:39:02;21.40;62.70
1786;DHT22;890;48.158;11.540;2022-10-26T13:41:36;21.30;62.90
1786;DHT22;890;48.158;11.540;2022-10-26T13:44:05;21.10;63.20
1786;DHT22;890;48.158;11.540;2022-10-26T13:46:35;21.10;63.30
1786;DHT22;890;48.158;11.540;2022-10-26T13:49:12;21.00;63.20
1786;DHT22;890;48.158;11.540;2022-10-26T13:51:43;21.00;63.60
1786;DHT22;890;48.158;11.540;2022-10-26T13:59:21;20.90;63.80
1786;DHT22;890;48.158;11.540;2022-10-26T14:05:10;21.00;63.90
1786;DHT22;890;48.158;11.540;2022-10-26T14:07:54;20.90;63.70
1786;DHT22;890;48.158;11.540;2022-10-26T14:10:40;21.00;63.90
1786;DHT22;890;48.158;11.540;2022-10-26T14:13:08;20.90;64.00
1786;DHT22;890;48.158;11.540;2022-10-26T14:15:34;21.00;64.20
1786;DHT22;890;48.158;11.540;2022-10-26T14:18:02;21.00;64.20
1786;DHT22;890;48.158;11.540;2022-10-26T14:20:29;21.10;64.40
1786;DHT22;890;48.158;11.540;2022-10-26T14:22:56;21.20;64.80
1786;DHT22;890;48.158;11.540;2022-10-26T14:25:23;21.20;64.20
1786;DHT22;890;48.158;11.540;2022-10-26T14:27:49;21.20;64.10
1786;DHT22;890;48.158;11.540;2022-10-26T14:32:50;21.10;64.20
1786;DHT22;890;48.158;11.540;2022-10-26T14:35:18;21.10;64.20
1786;DHT22;890;48.158;11.540;2022-10-26T14:37:57;21.00;64.30
1786;DHT22;890;48.158;11.540;2022-10-26T14:40:26;20.90;64.50
1786;DHT22;890;48.158;11.540;2022-10-26T14:43:00;21.00;64.80
1786;DHT22;890;48.158;11.540;2022-10-26T14:47:52;21.00;64.90
1786;DHT22;890;48.158;11.540;2022-10-26T14:50:20;21.00;65.00
1786;DHT22;890;48.158;11.540;2022-10-26T14:52:54;20.90;65.10
1786;DHT22;890;48.158;11.540;2022-10-26T14:55:20;20.80;65.30
1786;DHT22;890;48.158;11.540;2022-10-26T14:57:47;20.80;65.50
1786;DHT22;890;48.158;11.540;2022-10-26T15:00:23;20.80;65.80
1786;DHT22;890;48.158;11.540;2022-10-26T15:02:54;20.70;65.90
1786;DHT22;890;48.158;11.540;2022-10-26T15:05:28;20.70;66.00
1786;DHT22;890;48.158;11.540;2022-10-26T15:07:55;20.60;66.20
1786;DHT22;890;48.158;11.540;2022-10-26T15:13:28;20.60;66.60
1786;DHT22;890;48.158;11.540;2022-10-26T15:16:05;20.50;66.50
1786;DHT22;890;48.158;11.540;2022-10-26T15:18:34;20.60;66.80
1786;DHT22;890;48.158;11.540;2022-10-26T15:21:01;20.50;66.90
1786;DHT22;890;48.158;11.540;2022-10-26T15:23:28;20.50;67.10
1786;DHT22;890;48.158;11.540;2022-10-26T15:26:01;20.40;67.50
1786;DHT22;890;48.158;11.540;2022-10-26T15:31:04;20.30;67.80
1786;DHT22;890;48.158;11.540;2022-10-26T15:33:31;20.20;68.30
1786;DHT22;890;48.158;11.540;2022-10-26T15:36:21;20.30;68.40
1786;DHT22;890;48.158;11.540;2022-10-26T15:38:48;20.20;68.30
1786;DHT22;890;48.158;11.540;2022-10-26T15:41:25;20.20;68.30
1786;DHT22;890;48.158;11.540;2022-10-26T15:43:54;20.10;68.70
1786;DHT22;890;48.158;11.540;2022-10-26T15:46:21;20.20;68.70
1786;DHT22;890;48.158;11.540;2022-10-26T15:48:56;20.20;68.50
1786;DHT22;890;48.158;11.540;2022-10-26T15:51:22;20.20;68.70
1786;DHT22;890;48.158;11.540;2022-10-26T15:53:48;20.20;69.20
1786;DHT22;890;48.158;11.540;2022-10-26T15:56:19;20.20;68.90
1786;DHT22;890;48.158;11.540;2022-10-26T15:58:48;20.20;69.60
1786;DHT22;890;48.158;11.540;2022-10-26T16:01:18;20.20;69.60
1786;DHT22;890;48.158;11.540;2022-10-26T16:03:44;20.10;70.00
1786;DHT22;890;48.158;11.540;2022-10-26T16:06:16;20.10;69.80
1786;DHT22;890;48.158;11.540;2022-10-26T16:08:50;20.00;70.40
1786;DHT22;890;48.158;11.540;2022-10-26T16:11:16;20.00;70.30
1786;DHT22;890;48.158;11.540;2022-10-26T16:13:42;20.00;70.40
1786;DHT22;890;48.158;11.540;2022-10-26T16:16:18;20.00;70.80
1786;DHT22;890;48.158;11.540;2022-10-26T16:18:44;19.90;71.00
1786;DHT22;890;48.158;11.540;2022-10-26T16:21:17;19.90;71.10
1786;DHT22;890;48.158;11.540;2022-10-26T16:23:45;19.80;71.40
1786;DHT22;890;48.158;11.540;2022-10-26T16:26:11;19.80;71.60
1786;DHT22;890;48.158;11.540;2022-10-26T16:28:37;19.80;72.60
1786;DHT22;890;48.158;11.540;2022-10-26T16:31:05;19.80;71.40
1786;DHT22;890;48.158;11.540;2022-10-26T16:33:32;19.70;71.90
1786;DHT22;890;48.158;11.540;2022-10-26T16:35:58;19.70;72.20
1786;DHT22;890;48.158;11.540;2022-10-26T16:38:24;19.70;71.80
1786;DHT22;890;48.158;11.540;2022-10-26T16:41:03;19.70;72.20
1786;DHT22;890;48.158;11.540;2022-10-26T16:43:36;19.60;72.80
1786;DHT22;890;48.158;11.540;2022-10-26T16:46:07;19.60;72.40
1786;DHT22;890;48.158;11.540;2022-10-26T16:48:35;19.50;72.60
1786;DHT22;890;48.158;11.540;2022-10-26T16:51:21;19.50;72.80
1786;DHT22;890;48.158;11.540;2022-10-26T16:53:52;19.40;73.00
1786;DHT22;890;48.158;11.540;2022-10-26T16:56:20;19.50;72.70
1786;DHT22;890;48.158;11.540;2022-10-26T16:58:47;19.50;74.20
1786;DHT22;890;48.158;11.540;2022-10-26T17:01:14;19.50;73.60
1786;DHT22;890;48.158;11.540;2022-10-26T17:03:47;19.50;74.10
1786;DHT22;890;48.158;11.540;2022-10-26T17:06:13;19.40;74.40
1786;DHT22;890;48.158;11.540;2022-10-26T17:08:39;19.40;74.40
1786;DHT22;890;48.158;11.540;2022-10-26T17:11:10;19.40;74.30
1786;DHT22;890;48.158;11.540;2022-10-26T17:13:37;19.30;74.30
1786;DHT22;890;48.158;11.540;2022-10-26T17:16:10;19.30;74.30
1786;DHT22;890;48.158;11.540;2022-10-26T17:18:38;19.20;74.80
1786;DHT22;890;48.158;11.540;2022-10-26T17:21:05;19.30;75.10
1786;DHT22;890;48.158;11.540;2022-10-26T17:23:30;19.20;75.20
1786;DHT22;890;48.158;11.540;2022-10-26T17:26:00;19.20;75.60
1786;DHT22;890;48.158;11.540;2022-10-26T17:28:26;19.10;76.30
1786;DHT22;890;48.158;11.540;2022-10-26T17:31:07;19.20;75.70
1786;DHT22;890;48.158;11.540;2022-10-26T17:33:34;19.10;75.70
1786;DHT22;890;48.158;11.540;2022-10-26T17:36:02;19.10;75.60
1786;DHT22;890;48.158;11.540;2022-10-26T17:38:32;19.00;75.90
1786;DHT22;890;48.158;11.540;2022-10-26T17:41:04;19.00;76.00
1786;DHT22;890;48.158;11.540;2022-10-26T17:43:31;19.00;76.50
1786;DHT22;890;48.158;11.540;2022-10-26T17:45:58;18.90;76.10
1786;DHT22;890;48.158;11.540;2022-10-26T17:48:24;18.90;76.40
1786;DHT22;890;48.158;11.540;2022-10-26T17:50:51;18.90;76.30
1786;DHT22;890;48.158;11.540;2022-10-26T17:53:16;18.90;76.40
1786;DHT22;890;48.158;11.540;2022-10-26T17:55:42;18.80;76.40
1786;DHT22;890;48.158;11.540;2022-10-26T17:58:07;18.80;76.50
1786;DHT22;890;48.158;11.540;2022-10-26T18:00:33;18.70;76.60
1786;DHT22;890;48.158;11.540;2022-10-26T18:02:59;18.60;76.70
1786;DHT22;890;48.158;11.540;2022-10-26T18:05:24;18.60;76.90
1786;DHT22;890;48.158;11.540;2022-10-26T18:07:50;18.50;77.50
1786;DHT22;890;48.158;11.540;2022-10-26T18:10:15;18.50;77.70
1786;DHT22;890;48.158;11.540;2022-10-26T18:12:43;18.40;77.60
1786;DHT22;890;48.158;11.540;2022-10-26T18:15:09;18.30;77.80
1786;DHT22;890;48.158;11.540;2022-10-26T18:17:35;18.20;78.20
1786;DHT22;890;48.158;11.540;2022-10-26T18:20:00;18.20;78.50
1786;DHT22;890;48.158;11.540;2022-10-26T18:22:26;18.10;78.30
1786;DHT22;890;48.158;11.540;2022-10-26T18:24:51;18.10;78.50
1786;DHT22;890;48.158;11.540;2022-10-26T18:27:17;18.00;78.80
1786;DHT22;890;48.158;11.540;2022-10-26T18:29:44;18.00;79.20
1786;DHT22;890;48.158;11.540;2022-10-26T18:32:10;18.00;79.70
1786;DHT22;890;48.158;11.540;2022-10-26T18:34:35;18.00;79.60
1786;DHT22;890;48.158;11.540;2022-10-26T18:37:01;17.90;79.70